createdAt,value
2023-01-27T00:01:59.355Z,4.60
2023-01-27T00:04:44.656Z,4.15
2023-01-27T00:07:30.139Z,5.18
2023-01-27T00:10:18.486Z,5.05
2023-01-27T00:13:22.600Z,3.85
2023-01-27T00:16:08.427Z,4.65
2023-01-27T00:18:54.867Z,3.65
2023-01-27T00:22:02.017Z,3.85
2023-01-27T00:24:48.012Z,3.05
2023-01-27T00:27:36.311Z,2.75
2023-01-27T00:30:22.157Z,3.70
2023-01-27T00:33:27.614Z,3.88
2023-01-27T00:36:13.031Z,3.83
2023-01-27T00:38:58.359Z,3.30
2023-01-27T00:41:44.041Z,3.78
2023-01-27T00:44:33.280Z,3.00
2023-01-27T00:47:21.908Z,3.00
2023-01-27T00:50:09.926Z,3.08
2023-01-27T00:52:55.491Z,2.80
2023-01-27T00:55:41.919Z,3.45
2023-01-27T00:58:28.747Z,3.22
2023-01-27T01:01:16.200Z,3.60
2023-01-27T01:04:01.974Z,3.30
2023-01-27T01:06:47.172Z,3.13
2023-01-27T01:09:33.715Z,3.95
2023-01-27T01:12:18.920Z,4.32
2023-01-27T01:15:05.076Z,3.90
2023-01-27T01:17:50.748Z,2.88
2023-01-27T01:20:38.392Z,3.60
2023-01-27T01:23:23.679Z,4.35
2023-01-27T01:26:11.496Z,3.13
2023-01-27T01:29:02.965Z,3.38
2023-01-27T01:31:51.532Z,3.60
2023-01-27T01:34:41.105Z,3.50
2023-01-27T01:37:26.429Z,3.50
2023-01-27T01:40:12.658Z,3.10
2023-01-27T01:43:06.964Z,3.40
2023-01-27T01:45:56.797Z,3.55
2023-01-27T01:48:54.651Z,3.70
2023-01-27T01:51:46.350Z,4.22
2023-01-27T01:54:40.777Z,4.30
2023-01-27T01:57:31.854Z,3.67
2023-01-27T02:00:18.921Z,4.07
2023-01-27T02:03:04.940Z,4.57
2023-01-27T02:05:51.761Z,4.35
2023-01-27T02:08:42.527Z,4.85
2023-01-27T02:11:28.657Z,4.32
2023-01-27T02:14:16.403Z,4.85
2023-01-27T02:17:03.236Z,4.20
2023-01-27T02:20:05.224Z,4.35
2023-01-27T02:23:23.552Z,5.13
2023-01-27T02:26:22.849Z,4.30
2023-01-27T02:29:15.849Z,5.05
2023-01-27T02:32:04.234Z,4.13
2023-01-27T02:34:56.980Z,4.93
2023-01-27T02:37:43.092Z,5.22
2023-01-27T02:40:29.642Z,5.55
2023-01-27T02:43:15.228Z,5.22
2023-01-27T02:46:00.874Z,5.10
2023-01-27T02:48:48.838Z,5.75
2023-01-27T02:51:34.562Z,6.43
2023-01-27T02:54:26.258Z,5.57
2023-01-27T02:57:11.779Z,6.22
2023-01-27T03:00:13.264Z,6.15
2023-01-27T03:02:58.492Z,5.97
2023-01-27T03:05:47.707Z,7.05
2023-01-27T03:08:33.143Z,7.70
2023-01-27T03:11:36.950Z,7.70
2023-01-27T03:14:41.698Z,8.60
2023-01-27T03:17:46.026Z,9.68
2023-01-27T03:20:31.208Z,8.30
2023-01-27T03:23:19.337Z,8.48
2023-01-27T03:26:09.833Z,8.75
2023-01-27T03:29:16.464Z,9.68
2023-01-27T03:32:03.669Z,10.10
2023-01-27T03:34:50.065Z,9.02
2023-01-27T03:38:04.593Z,9.75
2023-01-27T03:41:08.599Z,10.65
2023-01-27T03:44:14.524Z,10.35
2023-01-27T03:47:09.005Z,10.88
2023-01-27T03:49:54.315Z,10.65
2023-01-27T03:52:40.465Z,10.15
2023-01-27T03:55:25.719Z,10.18
2023-01-27T03:58:22.674Z,10.18
2023-01-27T04:01:14.986Z,11.50
2023-01-27T04:04:18.664Z,11.55
2023-01-27T04:07:04.228Z,12.35
2023-01-27T04:09:51.639Z,11.48
2023-01-27T04:12:36.945Z,12.32
2023-01-27T04:15:22.812Z,13.07
2023-01-27T04:18:08.540Z,12.75
2023-01-27T04:20:54.093Z,12.80
2023-01-27T04:23:39.494Z,12.77
2023-01-27T04:26:25.947Z,11.40
2023-01-27T04:29:13.641Z,12.20
2023-01-27T04:32:01.579Z,12.00
2023-01-27T04:34:47.708Z,12.65
2023-01-27T04:37:33.928Z,12.40
2023-01-27T04:40:22.217Z,11.43
2023-01-27T04:43:07.662Z,10.90
2023-01-27T04:45:54.196Z,9.95
2023-01-27T04:48:44.540Z,8.18
2023-01-27T04:51:30.381Z,6.55
2023-01-27T04:54:15.780Z,6.68
2023-01-27T04:57:03.624Z,6.13
2023-01-27T04:59:50.110Z,5.65
2023-01-27T05:02:35.379Z,5.22
2023-01-27T05:05:20.779Z,4.82
2023-01-27T05:08:09.533Z,4.72
2023-01-27T05:10:55.133Z,4.20
2023-01-27T05:13:41.091Z,4.40
2023-01-27T05:16:27.760Z,4.82
2023-01-27T05:19:13.105Z,4.38
2023-01-27T05:21:58.737Z,4.72
2023-01-27T05:24:46.628Z,4.47
2023-01-27T05:27:31.833Z,4.72
2023-01-27T05:30:17.644Z,4.75
2023-01-27T05:33:03.123Z,3.72
2023-01-27T05:35:48.703Z,3.95
2023-01-27T05:38:34.832Z,4.30
2023-01-27T05:41:21.004Z,3.97
2023-01-27T05:44:10.264Z,3.88
2023-01-27T05:46:55.795Z,3.78
2023-01-27T05:49:41.031Z,3.72
2023-01-27T05:52:26.645Z,3.80
2023-01-27T05:55:12.204Z,3.85
2023-01-27T05:57:57.900Z,4.20
2023-01-27T06:00:44.463Z,3.97
2023-01-27T06:03:29.890Z,3.95
2023-01-27T06:06:23.822Z,3.97
2023-01-27T06:09:21.756Z,3.88
2023-01-27T06:12:07.109Z,3.80
2023-01-27T06:14:53.505Z,3.60
2023-01-27T06:17:38.774Z,4.15
2023-01-27T06:20:24.269Z,3.90
2023-01-27T06:23:11.305Z,3.15
2023-01-27T06:26:01.139Z,3.55
2023-01-27T06:28:52.574Z,3.15
2023-01-27T06:31:38.518Z,3.05
2023-01-27T06:34:24.008Z,3.08
2023-01-27T06:37:09.456Z,2.90
2023-01-27T06:39:55.037Z,3.42
2023-01-27T06:42:44.607Z,3.00
2023-01-27T06:45:29.965Z,2.97
2023-01-27T06:48:16.646Z,3.60
2023-01-27T06:51:02.248Z,3.17
2023-01-27T06:53:50.864Z,3.00
2023-01-27T06:56:36.255Z,2.78
2023-01-27T06:59:21.918Z,2.58
2023-01-27T07:02:07.289Z,2.40
2023-01-27T07:04:52.689Z,2.75
2023-01-27T07:07:41.246Z,2.60
2023-01-27T07:10:27.683Z,2.55
2023-01-27T07:13:14.306Z,2.63
2023-01-27T07:16:00.415Z,3.53
2023-01-27T07:18:45.891Z,3.15
2023-01-27T07:21:34.316Z,2.80
2023-01-27T07:24:19.989Z,2.80
2023-01-27T07:27:05.539Z,2.60
2023-01-27T07:29:51.525Z,4.35
2023-01-27T07:32:37.114Z,2.80
2023-01-27T07:35:23.479Z,2.55
2023-01-27T07:38:09.148Z,3.33
2023-01-27T07:40:54.867Z,3.22
2023-01-27T07:43:40.296Z,2.78
2023-01-27T07:46:26.911Z,2.90
2023-01-27T07:49:12.513Z,2.63
2023-01-27T07:51:58.084Z,2.63
2023-01-27T07:54:43.994Z,2.90
2023-01-27T07:57:29.502Z,3.03
2023-01-27T08:00:16.165Z,2.75
2023-01-27T08:03:02.609Z,2.70
2023-01-27T08:05:51.331Z,2.67
2023-01-27T08:08:38.239Z,2.83
2023-01-27T08:11:23.624Z,2.70
2023-01-27T08:14:09.071Z,2.95
2023-01-27T08:16:54.973Z,2.63
2023-01-27T08:19:40.040Z,3.00
2023-01-27T08:22:25.725Z,2.45
2023-01-27T08:25:11.809Z,2.83
2023-01-27T08:27:57.090Z,2.70
2023-01-27T08:30:42.816Z,2.70
2023-01-27T08:33:27.933Z,2.88
2023-01-27T08:36:17.517Z,2.97
2023-01-27T08:39:03.273Z,2.67
2023-01-27T08:41:56.680Z,2.42
2023-01-27T08:44:42.273Z,2.90
2023-01-27T08:47:27.524Z,2.38
2023-01-27T08:50:13.548Z,2.50
2023-01-27T08:52:59.209Z,2.70
2023-01-27T08:55:47.227Z,2.67
2023-01-27T08:58:33.401Z,2.70
2023-01-27T09:01:23.491Z,2.30
2023-01-27T09:04:09.360Z,2.50
2023-01-27T09:06:57.766Z,2.63
2023-01-27T09:09:48.669Z,2.78
2023-01-27T09:12:34.334Z,2.33
2023-01-27T09:15:19.721Z,2.15
2023-01-27T09:18:06.710Z,2.38
2023-01-27T09:20:52.516Z,2.20
2023-01-27T09:23:37.931Z,2.05
2023-01-27T09:26:24.805Z,2.55
2023-01-27T09:29:11.880Z,2.25
2023-01-27T09:31:57.487Z,1.90
2023-01-27T09:34:47.057Z,2.08
2023-01-27T09:37:39.657Z,2.30
2023-01-27T09:40:55.694Z,1.95
2023-01-27T09:43:49.192Z,2.30
2023-01-27T09:47:00.249Z,2.20
2023-01-27T09:50:21.244Z,2.60
2023-01-27T09:53:34.690Z,2.33
2023-01-27T09:56:56.346Z,2.28
2023-01-27T09:59:59.424Z,2.10
2023-01-27T10:03:27.543Z,2.40
2023-01-27T10:06:44.217Z,2.38
2023-01-27T10:10:08.215Z,2.10
2023-01-27T10:13:14.550Z,2.08
2023-01-27T10:16:29.123Z,2.00
2023-01-27T10:19:43.019Z,1.75
2023-01-27T10:23:03.138Z,1.70
2023-01-27T10:26:16.415Z,1.67
2023-01-27T10:29:26.850Z,1.80
2023-01-27T10:32:56.671Z,1.77
2023-01-27T10:35:51.802Z,1.80
2023-01-27T10:39:12.661Z,1.70
2023-01-27T10:42:31.648Z,1.30
2023-01-27T10:45:42.775Z,1.65
2023-01-27T10:48:43.825Z,1.70
2023-01-27T10:51:34.672Z,1.50
2023-01-27T10:54:34.222Z,1.52
2023-01-27T10:57:28.305Z,1.65
2023-01-27T11:03:50.126Z,1.38
2023-01-27T11:06:39.270Z,1.45
2023-01-27T11:09:35.676Z,1.60
2023-01-27T11:12:31.641Z,1.33
2023-01-27T11:15:35.992Z,1.50
2023-01-27T11:18:25.484Z,1.30
2023-01-27T11:21:17.493Z,1.50
2023-01-27T11:24:30.828Z,1.40
2023-01-27T11:27:36.149Z,1.80
2023-01-27T11:30:34.170Z,1.70
2023-01-27T11:33:27.611Z,1.50
2023-01-27T11:36:21.507Z,2.05
2023-01-27T11:39:10.542Z,1.50
2023-01-27T11:41:56.280Z,1.50
2023-01-27T11:44:43.540Z,1.77
2023-01-27T11:47:41.521Z,1.60
2023-01-27T11:50:31.681Z,1.85
2023-01-27T11:53:17.524Z,1.60
2023-01-27T11:56:08.445Z,1.90
2023-01-27T11:59:09.974Z,1.92
2023-01-27T12:02:02.651Z,1.50
2023-01-27T12:04:55.685Z,1.90
2023-01-27T12:07:56.049Z,1.90
2023-01-27T12:10:44.808Z,1.50
2023-01-27T12:13:53.089Z,1.70
2023-01-27T12:16:52.046Z,1.67
2023-01-27T12:19:42.405Z,2.00
2023-01-27T12:22:33.429Z,1.55
2023-01-27T12:25:25.352Z,1.83
2023-01-27T12:28:28.808Z,1.77
2023-01-27T12:31:31.333Z,1.67
2023-01-27T12:34:37.185Z,2.05
2023-01-27T12:37:27.626Z,2.20
2023-01-27T12:40:25.078Z,2.65
2023-01-27T12:43:20.002Z,2.38
2023-01-27T12:46:13.116Z,2.03
2023-01-27T12:49:22.598Z,2.45
2023-01-27T12:52:21.677Z,2.65
2023-01-27T12:55:37.491Z,2.60
2023-01-27T12:58:47.411Z,3.00
2023-01-27T13:01:37.570Z,2.63
2023-01-27T13:04:26.959Z,2.90
2023-01-27T13:07:17.492Z,1.95
2023-01-27T13:10:09.264Z,2.90
2023-01-27T13:12:57.430Z,2.60
2023-01-27T13:15:53.394Z,2.80
2023-01-27T13:18:39.693Z,2.60
2023-01-27T13:21:35.711Z,2.50
2023-01-27T13:24:33.530Z,2.53
2023-01-27T13:27:22.071Z,2.47
2023-01-27T13:30:27.468Z,2.53
2023-01-27T13:33:44.093Z,2.95
2023-01-27T13:36:53.402Z,2.60
2023-01-27T13:40:17.135Z,2.50
2023-01-27T13:43:20.188Z,2.67
2023-01-27T13:46:24.429Z,2.47
2023-01-27T13:49:39.371Z,2.05
2023-01-27T13:52:25.574Z,2.17
2023-01-27T13:55:15.005Z,2.40
2023-01-27T13:58:11.791Z,2.08
2023-01-27T14:01:21.313Z,2.15
2023-01-27T14:08:13.132Z,2.50
2023-01-27T14:11:09.329Z,2.22
2023-01-27T14:14:29.104Z,2.35
2023-01-27T14:17:26.562Z,2.35
2023-01-27T14:20:24.620Z,2.72
2023-01-27T14:23:37.738Z,2.30
2023-01-27T14:26:55.722Z,2.90
2023-01-27T14:30:02.828Z,2.55
2023-01-27T14:33:02.205Z,2.22
2023-01-27T14:36:21.210Z,2.33
2023-01-27T14:39:24.830Z,2.58
2023-01-27T14:42:22.872Z,2.75
2023-01-27T14:45:26.495Z,2.53
2023-01-27T14:48:25.814Z,2.70
2023-01-27T14:51:29.772Z,2.38
2023-01-27T14:54:44.227Z,2.47
2023-01-27T14:57:49.280Z,2.42
2023-01-27T15:01:05.664Z,1.83
2023-01-27T15:04:07.574Z,2.10
2023-01-27T15:07:06.974Z,2.60
2023-01-27T15:10:22.939Z,2.35
2023-01-27T15:13:29.657Z,3.13
2023-01-27T15:16:29.013Z,2.42
2023-01-27T15:19:18.897Z,2.78
2023-01-27T15:22:40.116Z,2.85
2023-01-27T15:25:34.338Z,2.90
2023-01-27T15:28:24.868Z,2.78
2023-01-27T15:31:17.050Z,3.30
2023-01-27T15:34:23.337Z,3.08
2023-01-27T15:37:19.619Z,3.38
2023-01-27T15:40:05.615Z,3.28
2023-01-27T15:42:52.443Z,3.75
2023-01-27T15:45:39.068Z,3.78
2023-01-27T15:48:34.463Z,3.40
2023-01-27T15:54:15.770Z,3.35
2023-01-27T15:57:06.115Z,3.88
2023-01-27T15:59:59.226Z,3.88
2023-01-27T16:03:02.525Z,3.88
2023-01-27T16:06:01.246Z,3.22
2023-01-27T16:08:59.028Z,3.30
2023-01-27T16:11:59.744Z,3.88
2023-01-27T16:14:46.318Z,3.47
2023-01-27T16:17:33.255Z,3.53
2023-01-27T16:20:31.554Z,3.75
2023-01-27T16:23:23.235Z,4.40
2023-01-27T16:26:33.020Z,3.80
2023-01-27T16:29:26.928Z,4.03
2023-01-27T16:32:17.364Z,3.80
2023-01-27T16:35:06.861Z,3.90
2023-01-27T16:38:14.930Z,4.13
2023-01-27T16:41:04.016Z,3.83
2023-01-27T16:44:05.277Z,4.10
2023-01-27T16:47:16.754Z,3.78
2023-01-27T16:50:02.627Z,3.92
2023-01-27T16:52:47.818Z,4.20
2023-01-27T16:55:33.738Z,4.00
2023-01-27T16:58:21.463Z,3.72
2023-01-27T17:01:07.233Z,3.95
2023-01-27T17:04:04.836Z,4.43
2023-01-27T17:07:06.720Z,4.00
2023-01-27T17:10:04.491Z,4.00
2023-01-27T17:12:50.680Z,4.25
2023-01-27T17:15:38.635Z,4.10
2023-01-27T17:18:25.915Z,4.43
2023-01-27T17:21:11.443Z,5.32
2023-01-27T17:24:04.536Z,5.35
2023-01-27T17:27:05.461Z,4.10
2023-01-27T17:29:56.926Z,5.40
2023-01-27T17:32:45.912Z,4.53
2023-01-27T17:35:35.486Z,4.28
2023-01-27T17:38:26.274Z,4.47
2023-01-27T17:41:38.436Z,4.70
2023-01-27T17:44:23.794Z,4.88
2023-01-27T17:47:14.847Z,4.35
2023-01-27T17:50:00.147Z,4.38
2023-01-27T17:52:52.532Z,4.85
2023-01-27T17:55:39.448Z,4.40
2023-01-27T17:58:27.601Z,3.90
2023-01-27T18:01:14.965Z,4.38
2023-01-27T18:04:02.785Z,4.53
2023-01-27T18:06:50.519Z,4.57
2023-01-27T18:09:47.944Z,4.32
2023-01-27T18:12:37.489Z,4.45
2023-01-27T18:15:47.156Z,4.47
2023-01-27T18:18:34.851Z,5.65
2023-01-27T18:21:25.618Z,4.25
2023-01-27T18:24:21.867Z,4.40
2023-01-27T18:27:43.035Z,4.35
2023-01-27T18:30:28.308Z,4.45
2023-01-27T18:33:14.396Z,4.45
2023-01-27T18:36:06.972Z,4.25
2023-01-27T18:38:53.166Z,5.25
2023-01-27T18:41:47.052Z,4.65
2023-01-27T18:44:35.625Z,5.78
2023-01-27T18:47:33.804Z,4.40
2023-01-27T18:50:22.401Z,4.47
2023-01-27T18:53:19.194Z,5.80
2023-01-27T18:56:04.650Z,6.55
2023-01-27T18:58:50.076Z,7.05
2023-01-27T19:01:36.194Z,6.50
2023-01-27T19:04:23.013Z,5.90
2023-01-27T19:07:16.755Z,7.22
2023-01-27T19:10:11.727Z,6.03
2023-01-27T19:12:59.039Z,4.70
2023-01-27T19:15:54.518Z,5.10
2023-01-27T19:21:25.537Z,5.65
2023-01-27T19:24:11.380Z,5.25
2023-01-27T19:26:56.668Z,5.63
2023-01-27T19:29:42.479Z,5.57
2023-01-27T19:32:27.915Z,5.18
2023-01-27T19:35:13.742Z,5.43
2023-01-27T19:38:02.465Z,6.32
2023-01-27T19:40:49.615Z,6.10
2023-01-27T19:43:35.245Z,6.88
2023-01-27T19:46:22.820Z,6.18
2023-01-27T19:49:19.395Z,6.78
2023-01-27T19:52:08.887Z,6.95
2023-01-27T19:54:58.865Z,6.57
2023-01-27T19:57:46.151Z,6.40
2023-01-27T20:00:35.296Z,6.63
2023-01-27T20:03:21.275Z,7.10
2023-01-27T20:06:21.368Z,6.40
2023-01-27T20:09:06.907Z,7.30
2023-01-27T20:11:52.462Z,7.65
2023-01-27T20:14:41.121Z,7.10
2023-01-27T20:17:26.489Z,7.05
2023-01-27T20:20:13.954Z,7.03
2023-01-27T20:23:03.447Z,7.03
2023-01-27T20:25:49.250Z,7.38
2023-01-27T20:28:35.124Z,7.43
2023-01-27T20:31:24.805Z,7.70
2023-01-27T20:34:16.966Z,8.15
2023-01-27T20:37:02.566Z,8.07
2023-01-27T20:39:48.189Z,7.35
2023-01-27T20:42:33.788Z,6.45
2023-01-27T20:45:20.431Z,7.00
2023-01-27T20:48:05.927Z,6.45
2023-01-27T20:50:58.679Z,6.53
2023-01-27T20:53:47.504Z,7.30
2023-01-27T20:56:33.099Z,7.70
2023-01-27T20:59:18.795Z,8.13
2023-01-27T21:02:04.411Z,9.13
2023-01-27T21:04:49.761Z,8.02
2023-01-27T21:07:35.201Z,8.18
2023-01-27T21:10:22.462Z,7.95
2023-01-27T21:13:20.268Z,8.35
2023-01-27T21:16:05.849Z,8.43
2023-01-27T21:18:51.383Z,9.20
2023-01-27T21:21:36.868Z,9.43
2023-01-27T21:24:24.074Z,10.05
2023-01-27T21:27:09.471Z,9.40
2023-01-27T21:29:58.197Z,9.63
2023-01-27T21:32:50.214Z,10.13
2023-01-27T21:35:36.056Z,10.10
2023-01-27T21:38:21.443Z,9.88
2023-01-27T21:41:13.306Z,9.57
2023-01-27T21:44:19.220Z,9.07
2023-01-27T21:47:07.889Z,10.18
2023-01-27T21:50:03.156Z,9.45
2023-01-27T21:52:53.311Z,10.25
2023-01-27T21:55:38.508Z,9.73
2023-01-27T21:58:27.141Z,10.05
2023-01-27T22:01:12.800Z,9.88
2023-01-27T22:03:58.462Z,9.80
2023-01-27T22:06:44.168Z,9.35
2023-01-27T22:09:32.603Z,10.90
2023-01-27T22:12:18.451Z,9.75
2023-01-27T22:15:04.090Z,9.75
2023-01-27T22:17:50.323Z,9.85
2023-01-27T22:20:35.976Z,10.50
2023-01-27T22:23:21.834Z,9.45
2023-01-27T22:26:09.165Z,9.55
2023-01-27T22:28:54.446Z,8.50
2023-01-27T22:31:41.904Z,8.63
2023-01-27T22:34:27.506Z,8.10
2023-01-27T22:37:17.669Z,8.60
2023-01-27T22:40:04.621Z,8.30
2023-01-27T22:42:50.647Z,9.02
2023-01-27T22:45:39.134Z,10.07
2023-01-27T22:48:24.648Z,10.70
2023-01-27T22:51:10.137Z,10.73
2023-01-27T22:53:55.965Z,10.40
2023-01-27T22:56:44.086Z,10.15
2023-01-27T22:59:29.436Z,9.73
2023-01-27T23:02:15.119Z,10.73
2023-01-27T23:05:03.600Z,10.35
2023-01-27T23:07:49.224Z,10.20
2023-01-27T23:10:35.268Z,11.23
2023-01-27T23:13:20.701Z,10.40
2023-01-27T23:16:06.470Z,9.88
2023-01-27T23:18:53.217Z,10.52
2023-01-27T23:21:38.813Z,10.25
2023-01-27T23:24:27.952Z,10.60
2023-01-27T23:27:13.603Z,10.98
2023-01-27T23:29:59.159Z,9.98
2023-01-27T23:32:45.933Z,10.45
2023-01-27T23:35:31.172Z,10.98
2023-01-27T23:38:31.652Z,10.32
2023-01-27T23:41:22.960Z,10.10
2023-01-27T23:44:11.356Z,9.95
2023-01-27T23:47:00.444Z,9.13
2023-01-27T23:49:46.547Z,9.20
2023-01-27T23:52:34.902Z,9.48
2023-01-27T23:55:20.152Z,8.75
2023-01-27T23:58:06.281Z,10.25
